Time;durP1;ratioP1;P1;durP2;ratioP2;P2;SDS_P1;SDS_P2;PMS_P1;PMS_P2;Temp;Humidity;BMP_temperature;BMP_pressure;BME280_temperature;BME280_humidity;BME280_pressure;Samples;Min_cycle;Max_cycle;Signal;HPM_P1;HPM_P2
2023/12/07 00:01:22;;;;;;;9.25;6.57;;;;;;;-3.03;100.00;102061.16;5113477;28;20031;-73
2023/12/07 00:03:47;;;;;;;9.57;6.78;;;;;;;-3.04;100.00;102066.38;5098838;28;20475;-73
2023/12/07 00:06:13;;;;;;;9.63;6.50;;;;;;;-3.07;100.00;102062.06;5117633;28;20027;-74
2023/12/07 00:08:38;;;;;;;9.25;6.88;;;;;;;-3.06;100.00;102066.41;5117221;28;20035;-72
2023/12/07 00:11:03;;;;;;;12.18;7.38;;;;;;;-3.10;100.00;102067.31;5117224;28;20053;-73
2023/12/07 00:13:29;;;;;;;10.40;7.10;;;;;;;-3.12;100.00;102061.28;5117341;28;20087;-73
2023/12/07 00:15:54;;;;;;;9.27;6.57;;;;;;;-3.17;100.00;102057.00;5117194;28;20474;-75
2023/12/07 00:18:19;;;;;;;9.02;6.50;;;;;;;-3.22;100.00;102060.53;5117031;28;20076;-74
2023/12/07 00:20:45;;;;;;;12.73;6.78;;;;;;;-3.24;100.00;102054.50;5117036;28;20184;-73
2023/12/07 00:23:10;;;;;;;11.55;7.10;;;;;;;-3.25;100.00;102062.34;5117359;28;20027;-73
2023/12/07 00:25:36;;;;;;;11.55;6.70;;;;;;;-3.25;100.00;102055.38;5081859;28;20169;-74
2023/12/07 00:28:02;;;;;;;14.93;6.80;;;;;;;-3.25;100.00;102057.97;5116981;28;20016;-74
2023/12/07 00:30:27;;;;;;;10.00;6.13;;;;;;;-3.27;100.00;102059.75;5116811;28;20023;-73
2023/12/07 00:32:52;;;;;;;10.45;6.63;;;;;;;-3.26;100.00;102051.03;5098990;28;20042;-73
2023/12/07 00:35:21;;;;;;;8.32;6.40;;;;;;;-3.25;100.00;102057.97;5117028;28;20085;-73
2023/12/07 00:37:47;;;;;;;11.63;6.30;;;;;;;-3.24;100.00;102044.09;5116758;28;20035;-73
2023/12/07 00:40:12;;;;;;;9.20;5.88;;;;;;;-3.24;100.00;102051.00;5116416;28;20371;-74
2023/12/07 00:42:37;;;;;;;9.35;6.55;;;;;;;-3.23;100.00;102050.16;5116219;28;20023;-72
2023/12/07 00:45:04;;;;;;;8.52;5.90;;;;;;;-3.22;100.00;102046.66;5116484;28;20085;-73
2023/12/07 00:47:29;;;;;;;10.00;6.57;;;;;;;-3.24;100.00;102051.00;5116444;28;20028;-73
2023/12/07 00:49:54;;;;;;;9.15;6.57;;;;;;;-3.24;100.00;102053.63;5116187;28;20034;-72
2023/12/07 00:52:19;;;;;;;10.18;7.60;;;;;;;-3.23;100.00;102052.75;5116112;28;20524;-73
2023/12/07 00:54:45;;;;;;;11.98;7.88;;;;;;;-3.22;100.00;102052.72;5098696;28;20401;-73
2023/12/07 00:57:10;;;;;;;10.90;7.38;;;;;;;-3.21;100.00;102054.47;5116295;28;20059;-73
2023/12/07 00:59:36;;;;;;;13.63;7.80;;;;;;;-3.19;100.00;102052.69;5098073;28;20028;-73
2023/12/07 01:02:05;;;;;;;12.45;8.18;;;;;;;-3.17;100.00;102055.25;5116164;28;20019;-72
2023/12/07 01:04:31;;;;;;;12.25;8.75;;;;;;;-3.17;100.00;102054.41;5116132;28;20110;-73
2023/12/07 01:06:56;;;;;;;15.57;8.93;;;;;;;-3.19;100.00;102057.88;5115821;28;20066;-72
2023/12/07 01:09:22;;;;;;;12.90;8.68;;;;;;;-3.15;100.00;102057.84;5116050;28;20073;-74
2023/12/07 01:11:49;;;;;;;19.55;8.98;;;;;;;-3.09;100.00;102056.03;5115661;28;20036;-72
2023/12/07 01:14:15;;;;;;;16.00;9.65;;;;;;;-3.03;100.00;102055.94;5115851;28;20023;-72
2023/12/07 01:16:40;;;;;;;17.25;9.52;;;;;;;-2.95;100.00;102060.19;5115940;28;20107;-72
2023/12/07 01:19:07;;;;;;;14.30;9.38;;;;;;;-2.90;100.00;102064.41;5115556;28;20064;-72
2023/12/07 01:21:33;;;;;;;18.52;10.43;;;;;;;-2.88;100.00;102067.00;5115697;28;20054;-72
2023/12/07 01:23:58;;;;;;;17.27;9.63;;;;;;;-2.89;100.00;102066.16;5097193;28;20375;-73
2023/12/07 01:26:23;;;;;;;19.42;10.10;;;;;;;-2.85;100.00;102070.44;5097193;28;20024;-73
2023/12/07 01:28:49;;;;;;;18.85;9.80;;;;;;;-2.85;100.00;102067.84;5115308;28;20035;-73
2023/12/07 01:31:14;;;;;;;14.52;9.98;;;;;;;-2.86;100.00;102066.09;5115903;28;20366;-72
2023/12/07 01:33:40;;;;;;;17.33;9.48;;;;;;;-2.84;100.00;102068.69;5115178;28;20024;-71
2023/12/07 01:36:06;;;;;;;16.55;8.88;;;;;;;-2.84;100.00;102064.34;5115554;28;20452;-71
2023/12/07 01:38:31;;;;;;;13.05;9.20;;;;;;;-2.84;100.00;102059.16;5097536;28;20340;-72
2023/12/07 01:40:56;;;;;;;15.15;9.40;;;;;;;-2.85;100.00;102067.84;5115609;28;20111;-73
2023/12/07 01:43:23;;;;;;;15.90;9.77;;;;;;;-2.83;100.00;102065.19;5115558;28;20535;-71
2023/12/07 01:45:53;;;;;;;15.77;10.23;;;;;;;-2.83;100.00;102057.38;5115435;28;20088;-72
2023/12/07 01:48:20;;;;;;;15.00;9.35;;;;;;;-2.82;100.00;102051.31;5115458;28;20517;-74
2023/12/07 01:50:46;;;;;;;16.17;10.55;;;;;;;-2.78;100.00;102067.72;5114896;28;20027;-72
2023/12/07 01:53:12;;;;;;;18.63;10.10;;;;;;;-2.74;100.00;102064.22;5096929;28;20065;-72
2023/12/07 01:55:38;;;;;;;13.90;9.07;;;;;;;-2.72;100.00;102057.22;5115229;28;20032;-72
2023/12/07 01:58:04;;;;;;;18.70;11.23;;;;;;;-2.67;100.00;102063.22;5098214;28;20024;-72
2023/12/07 02:00:30;;;;;;;20.40;11.20;;;;;;;-2.61;100.00;102065.75;5097523;28;20031;-75
2023/12/07 02:02:55;;;;;;;19.35;10.48;;;;;;;-2.59;100.00;102065.72;5115581;28;20034;-72
2023/12/07 02:05:22;;;;;;;16.88;9.70;;;;;;;-2.59;100.00;102065.72;5115163;28;20157;-72
2023/12/07 02:07:47;;;;;;;16.95;10.23;;;;;;;-2.58;100.00;102064.81;5114457;28;20028;-72
2023/12/07 02:10:16;;;;;;;13.80;9.65;;;;;;;-2.58;100.00;102068.28;5114900;28;20030;-72
2023/12/07 02:12:41;;;;;;;16.20;9.40;;;;;;;-2.59;100.00;102069.16;5097054;28;20027;-72
2023/12/07 02:15:08;;;;;;;15.60;9.98;;;;;;;-2.60;100.00;102067.44;5114173;28;20051;-72
2023/12/07 02:17:38;;;;;;;15.00;9.40;;;;;;;-2.65;100.00;102061.44;5114284;28;20031;-72
2023/12/07 02:20:10;;;;;;;12.93;8.82;;;;;;;-2.69;100.00;102067.59;5114937;28;20027;-72
2023/12/07 02:22:47;;;;;;;14.93;9.32;;;;;;;-2.69;100.00;102059.78;5115085;28;20107;-72
2023/12/07 02:25:14;;;;;;;19.20;10.07;;;;;;;-2.65;100.00;102069.28;5096568;28;20027;-71
2023/12/07 02:27:42;;;;;;;16.35;10.95;;;;;;;-2.66;100.00;102064.94;5114440;28;20486;-73
2023/12/07 02:30:09;;;;;;;19.67;10.55;;;;;;;-2.68;100.00;102067.56;5114827;28;20019;-72
2023/12/07 02:32:36;;;;;;;18.05;10.60;;;;;;;-2.69;100.00;102073.69;5114343;28;20039;-72
2023/12/07 02:35:02;;;;;;;15.98;9.75;;;;;;;-2.72;100.00;102072.84;5114156;28;20028;-72
2023/12/07 02:37:32;;;;;;;18.50;9.88;;;;;;;-2.73;100.00;102065.91;5096109;28;20080;-72
2023/12/07 02:39:57;;;;;;;21.08;10.73;;;;;;;-2.69;100.00;102072.78;5114384;28;20028;-71
2023/12/07 02:42:26;;;;;;;18.48;10.48;;;;;;;-2.62;100.00;102070.97;5095930;28;20419;-71
2023/12/07 02:44:53;;;;;;;20.23;10.98;;;;;;;-2.56;100.00;102071.72;5114575;28;20027;-71
2023/12/07 02:47:19;;;;;;;17.92;11.13;;;;;;;-2.53;100.00;102073.44;5114177;28;20101;-71
2023/12/07 02:49:44;;;;;;;22.33;11.77;;;;;;;-2.49;100.00;102075.09;5114114;28;20027;-71
2023/12/07 02:52:10;;;;;;;20.70;12.50;;;;;;;-2.46;100.00;102072.44;5114695;28;20059;-71
2023/12/07 02:54:35;;;;;;;17.48;10.43;;;;;;;-2.45;100.00;102068.09;5113885;28;20408;-72
2023/12/07 02:57:00;;;;;;;23.48;11.82;;;;;;;-2.43;100.00;102079.34;5113767;28;20024;-72
2023/12/07 02:59:26;;;;;;;21.50;12.25;;;;;;;-2.41;100.00;102077.59;5114373;28;20048;-72
2023/12/07 03:01:51;;;;;;;20.33;11.77;;;;;;;-2.43;100.00;102076.72;5114204;28;20080;-72
2023/12/07 03:04:17;;;;;;;22.92;11.88;;;;;;;-2.43;100.00;102074.13;5114020;28;20028;-72
2023/12/07 03:06:42;;;;;;;23.50;12.38;;;;;;;-2.42;100.00;102074.09;5096227;28;20116;-73
2023/12/07 03:09:07;;;;;;;25.50;12.07;;;;;;;-2.40;100.00;102074.94;5114356;28;20023;-71
2023/12/07 03:11:33;;;;;;;24.42;12.70;;;;;;;-2.37;100.00;102082.72;5078913;28;20100;-71
2023/12/07 03:13:58;;;;;;;20.55;12.27;;;;;;;-2.35;100.00;102077.47;5113783;28;20071;-71
2023/12/07 03:16:23;;;;;;;23.00;12.55;;;;;;;-2.34;100.00;102069.63;5079400;28;20036;-71
2023/12/07 03:18:49;;;;;;;22.58;13.30;;;;;;;-2.29;100.00;102063.47;5113535;28;20516;-72
2023/12/07 03:21:14;;;;;;;22.02;12.23;;;;;;;-2.27;100.00;102066.91;5114063;28;20048;-72
2023/12/07 03:23:39;;;;;;;23.52;13.77;;;;;;;-2.21;100.00;102066.78;5113788;28;20081;-71
2023/12/07 03:26:05;;;;;;;25.40;13.32;;;;;;;-2.16;100.00;102065.00;5095608;28;20363;-71
2023/12/07 03:28:30;;;;;;;22.45;13.25;;;;;;;-2.13;100.00;102075.38;5095711;28;20055;-71
2023/12/07 03:30:55;;;;;;;29.10;14.00;;;;;;;-2.12;100.00;102077.06;5095848;28;20020;-72
2023/12/07 03:33:21;;;;;;;25.00;13.52;;;;;;;-2.09;100.00;102070.94;5095524;28;20038;-72
2023/12/07 03:35:46;;;;;;;25.15;14.82;;;;;;;-2.05;100.00;102073.47;5114205;28;20106;-71
2023/12/07 03:38:11;;;;;;;27.25;15.35;;;;;;;-2.03;100.00;102071.72;5099578;28;20474;-72
2023/12/07 03:40:37;;;;;;;24.98;14.27;;;;;;;-2.01;100.00;102076.91;5099994;28;20077;-72
2023/12/07 03:43:04;;;;;;;30.38;16.90;;;;;;;-2.00;100.00;102066.44;5099596;28;20042;-72
2023/12/07 03:45:29;;;;;;;39.60;16.33;;;;;;;-1.99;100.00;102068.13;5117647;28;20031;-72
2023/12/07 03:47:54;;;;;;;32.40;16.85;;;;;;;-1.99;100.00;102065.53;5117656;28;20068;-72
2023/12/07 03:50:20;;;;;;;34.45;16.85;;;;;;;-1.97;100.00;102065.50;5117333;28;20023;-72
2023/12/07 03:52:45;;;;;;;29.83;16.30;;;;;;;-1.98;100.00;102066.41;5099199;28;20055;-72
2023/12/07 03:55:11;;;;;;;29.02;15.73;;;;;;;-1.98;100.00;102067.25;5117553;28;20035;-72
2023/12/07 03:57:36;;;;;;;30.38;16.25;;;;;;;-1.97;100.00;102074.19;5117516;28;20027;-72
2023/12/07 04:00:04;;;;;;;34.17;17.60;;;;;;;-1.98;100.00;102076.84;5099140;28;20034;-71
2023/12/07 04:02:32;;;;;;;32.83;17.27;;;;;;;-2.00;100.00;102073.38;5117611;28;20032;-72
2023/12/07 04:05:01;;;;;;;32.00;17.92;;;;;;;-2.01;100.00;102067.31;5117569;28;20028;-72
2023/12/07 04:07:27;;;;;;;38.28;18.05;;;;;;;-1.99;100.00;102069.88;5117581;28;20056;-72
2023/12/07 04:09:52;;;;;;;34.83;18.85;;;;;;;-2.00;100.00;102065.56;5099009;28;20463;-72
2023/12/07 04:12:19;;;;;;;31.95;17.63;;;;;;;-1.99;100.00;102070.75;5117147;28;20028;-72
2023/12/07 04:14:45;;;;;;;36.25;17.77;;;;;;;-2.01;100.00;102064.69;5117175;28;20027;-71
2023/12/07 04:17:10;;;;;;;32.67;18.75;;;;;;;-2.02;100.00;102060.38;5116966;28;20308;-71
2023/12/07 04:19:35;;;;;;;32.10;18.33;;;;;;;-2.06;100.00;102061.34;5116993;28;20034;-71
2023/12/07 04:22:01;;;;;;;29.98;17.60;;;;;;;-2.06;100.00;102063.94;5081318;28;20058;-72
2023/12/07 04:24:26;;;;;;;32.13;17.95;;;;;;;-2.09;100.00;102057.91;5116957;28;20039;-72
2023/12/07 04:26:51;;;;;;;36.08;18.83;;;;;;;-2.13;100.00;102060.56;5116539;28;20023;-72
2023/12/07 04:29:17;;;;;;;43.63;21.45;;;;;;;-2.12;100.00;102058.81;5098581;28;20115;-71
2023/12/07 04:31:43;;;;;;;45.08;21.35;;;;;;;-2.13;100.00;102059.72;5116703;28;20027;-72
2023/12/07 04:34:08;;;;;;;44.90;23.67;;;;;;;-2.13;100.00;102051.91;5116615;28;20096;-71
2023/12/07 04:36:34;;;;;;;50.42;24.05;;;;;;;-2.08;100.00;102057.03;5081711;28;20055;-71
2023/12/07 04:38:59;;;;;;;38.40;23.75;;;;;;;-2.05;100.00;102054.34;5116420;28;20028;-72
2023/12/07 04:41:24;;;;;;;48.90;25.90;;;;;;;-2.01;100.00;102058.63;5116351;28;20030;-71
2023/12/07 04:43:50;;;;;;;50.80;26.63;;;;;;;-1.97;100.00;102057.66;5098367;28;20035;-71
2023/12/07 04:46:15;;;;;;;52.65;25.40;;;;;;;-1.92;100.00;102057.59;5116215;28;20027;-71
2023/12/07 04:48:40;;;;;;;70.10;28.58;;;;;;;-1.89;100.00;102060.16;5115856;28;20024;-71
2023/12/07 04:51:06;;;;;;;62.65;27.38;;;;;;;-1.87;100.00;102058.38;5116736;28;20122;-72
2023/12/07 04:53:31;;;;;;;73.38;31.65;;;;;;;-1.86;100.00;102071.38;5116539;28;20031;-72
2023/12/07 04:55:56;;;;;;;72.78;32.97;;;;;;;-1.83;100.00;102060.03;5116525;28;20051;-72
2023/12/07 04:58:22;;;;;;;118.45;35.08;;;;;;;-1.79;100.00;102073.00;5116326;28;20521;-72
2023/12/07 05:00:47;;;;;;;236.68;40.13;;;;;;;-1.74;100.00;102067.69;5116469;28;20032;-72
2023/12/07 05:03:12;;;;;;;323.77;42.22;;;;;;;-1.67;100.00;102071.00;5116124;28;20023;-72
2023/12/07 05:05:38;;;;;;;280.38;38.28;;;;;;;-1.63;100.00;102068.34;5097626;28;20024;-71
2023/12/07 05:08:03;;;;;;;197.30;37.65;;;;;;;-1.61;100.00;102066.53;5116045;28;20043;-72
2023/12/07 05:10:29;;;;;;;434.25;43.78;;;;;;;-1.54;100.00;102069.03;5115748;28;20036;-72
2023/12/07 05:12:56;;;;;;;225.10;39.40;;;;;;;-1.52;100.00;102060.28;5116114;28;20048;-75
2023/12/07 05:15:22;;;;;;;281.25;38.33;;;;;;;-1.50;100.00;102062.88;5098206;28;20031;-72
2023/12/07 05:17:47;;;;;;;163.60;35.17;;;;;;;-1.48;100.00;102059.34;5115967;28;20042;-72
2023/12/07 05:20:13;;;;;;;167.10;36.72;;;;;;;-1.47;100.00;102058.44;5115857;28;20072;-72
2023/12/07 05:22:38;;;;;;;212.55;34.90;;;;;;;-1.48;100.00;102048.91;5115949;28;20031;-72
2023/12/07 05:25:04;;;;;;;214.48;35.22;;;;;;;-1.48;100.00;102054.13;5115447;28;20031;-72
2023/12/07 05:27:30;;;;;;;181.73;31.95;;;;;;;-1.52;100.00;102049.84;5115947;28;20024;-71
2023/12/07 05:29:56;;;;;;;161.27;30.38;;;;;;;-1.56;100.00;102048.19;5097361;28;20444;-73
2023/12/07 05:32:21;;;;;;;176.55;32.20;;;;;;;-1.59;100.00;102043.03;5115537;28;20053;-72
2023/12/07 05:34:46;;;;;;;119.78;28.63;;;;;;;-1.61;100.00;102053.50;5115617;28;20024;-74
2023/12/07 05:37:12;;;;;;;87.35;27.27;;;;;;;-1.64;100.00;102044.88;5115417;28;20073;-72
2023/12/07 05:39:37;;;;;;;128.52;29.20;;;;;;;-1.64;100.00;102043.13;5116235;28;20435;-72
2023/12/07 05:42:04;;;;;;;152.07;29.50;;;;;;;-1.63;100.00;102047.47;5097882;28;20164;-72
2023/12/07 05:44:30;;;;;;;113.63;25.73;;;;;;;-1.65;100.00;102040.53;5097667;28;20451;-72
2023/12/07 05:46:57;;;;;;;87.03;23.55;;;;;;;-1.66;100.00;102041.44;5115340;28;20024;-72
2023/12/07 05:49:23;;;;;;;95.93;22.52;;;;;;;-1.67;100.00;102040.56;5097468;28;20110;-73
2023/12/07 05:51:49;;;;;;;153.35;23.20;;;;;;;-1.66;100.00;102038.81;5115322;28;20055;-72
2023/12/07 05:54:14;;;;;;;106.72;22.20;;;;;;;-1.65;100.00;102030.09;5115355;28;20024;-72
2023/12/07 05:56:40;;;;;;;180.75;22.92;;;;;;;-1.64;100.00;102031.84;5115257;28;20035;-72
2023/12/07 05:59:06;;;;;;;159.63;21.63;;;;;;;-1.65;100.00;102030.09;5114114;28;20107;-72
2023/12/07 06:01:31;;;;;;;115.35;21.10;;;;;;;-1.64;100.00;102034.44;5115092;28;20024;-72
2023/12/07 06:03:58;;;;;;;129.25;22.23;;;;;;;-1.64;100.00;102037.06;5115007;28;20076;-71
2023/12/07 06:06:23;;;;;;;82.03;20.13;;;;;;;-1.63;100.00;102043.97;5114910;28;20024;-74
2023/12/07 06:08:49;;;;;;;75.50;21.20;;;;;;;-1.62;100.00;102054.38;5097846;28;20206;-72
2023/12/07 06:11:14;;;;;;;119.30;22.05;;;;;;;-1.62;100.00;102046.53;5115698;28;20023;-72
2023/12/07 06:13:40;;;;;;;103.32;22.20;;;;;;;-1.62;100.00;102048.31;5096783;28;20024;-72
2023/12/07 06:16:06;;;;;;;129.43;22.48;;;;;;;-1.62;100.00;102045.69;5097519;28;20099;-73
2023/12/07 06:18:31;;;;;;;77.13;22.38;;;;;;;-1.63;100.00;102051.81;5115828;28;20087;-72
2023/12/07 06:20:56;;;;;;;66.53;23.40;;;;;;;-1.63;100.00;102046.59;5119360;28;20443;-72
2023/12/07 06:23:22;;;;;;;97.40;24.65;;;;;;;-1.63;100.00;102042.25;5120037;28;20028;-72
2023/12/07 06:25:47;;;;;;;79.03;23.85;;;;;;;-1.62;100.00;102049.16;5120354;28;20447;-73
2023/12/07 06:28:12;;;;;;;106.63;24.65;;;;;;;-1.62;100.00;102046.53;5086422;28;20035;-72
2023/12/07 06:30:38;;;;;;;71.25;21.55;;;;;;;-1.64;100.00;102047.50;5104784;28;20035;-72
2023/12/07 06:33:04;;;;;;;64.00;20.63;;;;;;;-1.66;100.00;102038.81;5123137;28;20020;-72
2023/12/07 06:35:30;;;;;;;60.67;21.20;;;;;;;-1.67;100.00;102050.13;5105534;28;20536;-73
2023/12/07 06:37:55;;;;;;;71.93;23.35;;;;;;;-1.68;100.00;102038.00;5106392;28;20028;-73
2023/12/07 06:40:21;;;;;;;87.68;24.17;;;;;;;-1.66;100.00;102042.28;5124816;28;20028;-74
2023/12/07 06:42:48;;;;;;;93.60;21.85;;;;;;;-1.66;100.00;102038.81;5104991;28;20028;-73
2023/12/07 06:45:14;;;;;;;63.65;20.17;;;;;;;-1.65;100.00;102037.94;5117308;28;20172;-73
2023/12/07 06:47:42;;;;;;;73.32;21.98;;;;;;;-1.63;100.00;102034.41;5114655;28;20148;-73
2023/12/07 06:50:09;;;;;;;155.65;24.00;;;;;;;-1.63;100.00;102037.03;5114704;28;20059;-72
2023/12/07 06:52:37;;;;;;;134.00;24.33;;;;;;;-1.62;100.00;102040.47;5114630;28;20027;-72
2023/12/07 06:55:03;;;;;;;196.98;24.80;;;;;;;-1.63;100.00;102038.75;5114027;28;20035;-72
2023/12/07 06:57:28;;;;;;;212.23;24.15;;;;;;;-1.65;100.00;102038.78;5095571;28;20088;-71
2023/12/07 06:59:54;;;;;;;228.10;24.17;;;;;;;-1.65;100.00;102043.16;5095972;28;20072;-72
2023/12/07 07:02:19;;;;;;;105.70;21.75;;;;;;;-1.64;100.00;102039.66;5114342;28;20475;-73
2023/12/07 07:04:45;;;;;;;148.20;22.55;;;;;;;-1.63;100.00;102036.13;5096418;28;20031;-73
2023/12/07 07:07:10;;;;;;;69.55;18.98;;;;;;;-1.63;100.00;102036.13;5114259;28;20027;-75
2023/12/07 07:09:35;;;;;;;180.63;22.60;;;;;;;-1.65;100.00;102030.09;5114288;28;20336;-73
2023/12/07 07:12:01;;;;;;;72.53;19.10;;;;;;;-1.63;100.00;102042.25;5095529;28;20396;-74
2023/12/07 07:14:26;;;;;;;82.97;19.15;;;;;;;-1.63;100.00;102037.03;5113482;28;20118;-73
2023/12/07 07:16:52;;;;;;;89.00;19.80;;;;;;;-1.64;100.00;102037.91;5113686;28;20051;-73
2023/12/07 07:19:17;;;;;;;132.38;21.42;;;;;;;-1.64;100.00;102044.88;5095097;28;20020;-73
2023/12/07 07:21:43;;;;;;;107.35;19.75;;;;;;;-1.66;100.00;102034.44;5113135;28;20047;-73
2023/12/07 07:24:09;;;;;;;94.28;19.40;;;;;;;-1.65;100.00;102035.31;5113166;28;20027;-74
2023/12/07 07:26:34;;;;;;;83.57;18.30;;;;;;;-1.63;100.00;102038.75;5113613;28;20452;-72
2023/12/07 07:29:00;;;;;;;87.28;19.70;;;;;;;-1.63;100.00;102038.75;5113263;28;20455;-74
2023/12/07 07:31:25;;;;;;;85.45;18.35;;;;;;;-1.60;100.00;102046.50;5095416;28;20348;-72
2023/12/07 07:33:50;;;;;;;86.40;18.63;;;;;;;-1.58;100.00;102036.03;5094805;28;20024;-73
2023/12/07 07:36:16;;;;;;;158.93;19.83;;;;;;;-1.56;100.00;102027.28;5095957;28;20332;-73
2023/12/07 07:38:42;;;;;;;113.45;18.40;;;;;;;-1.53;100.00;102031.59;5094902;28;20031;-73
2023/12/07 07:41:07;;;;;;;110.68;20.60;;;;;;;-1.52;100.00;102034.19;5078496;28;20413;-72
2023/12/07 07:43:34;;;;;;;85.35;17.80;;;;;;;-1.50;100.00;102040.22;5094858;28;20023;-72
2023/12/07 07:46:00;;;;;;;107.60;18.70;;;;;;;-1.47;100.00;102047.13;5113004;28;20126;-73
2023/12/07 07:48:26;;;;;;;141.00;19.08;;;;;;;-1.44;100.00;102044.47;5095838;28;20096;-71
2023/12/07 07:50:51;;;;;;;139.75;22.42;;;;;;;-1.42;100.00;102046.16;5095028;28;20385;-72
2023/12/07 07:53:16;;;;;;;108.18;19.17;;;;;;;-1.39;100.00;102039.97;5112835;28;20031;-77
2023/12/07 07:55:42;;;;;;;144.02;20.55;;;;;;;-1.36;100.00;102039.91;5113650;28;20063;-72
2023/12/07 07:58:07;;;;;;;99.85;18.77;;;;;;;-1.32;100.00;102032.91;5113368;28;20031;-73
2023/12/07 08:00:34;;;;;;;103.60;17.95;;;;;;;-1.30;100.00;102033.72;5113179;28;20033;-72
2023/12/07 08:02:59;;;;;;;91.38;17.77;;;;;;;-1.29;100.00;102038.91;5095449;28;20262;-73
2023/12/07 08:05:25;;;;;;;76.60;17.05;;;;;;;-1.26;100.00;102049.28;5113201;28;20031;-73
2023/12/07 08:07:50;;;;;;;102.03;18.30;;;;;;;-1.23;100.00;102057.94;5095113;28;20111;-72
2023/12/07 08:10:16;;;;;;;107.50;17.70;;;;;;;-1.21;100.00;102054.41;5112903;28;20043;-73
2023/12/07 08:12:42;;;;;;;88.78;17.48;;;;;;;-1.19;100.00;102047.41;5113197;28;20023;-72
2023/12/07 08:15:11;;;;;;;100.32;17.73;;;;;;;-1.16;100.00;102049.09;5112585;28;20028;-73
2023/12/07 08:17:40;;;;;;;113.90;19.05;;;;;;;-1.14;100.00;102050.75;5095694;28;20035;-73
2023/12/07 08:20:07;;;;;;;109.30;19.70;;;;;;;-1.10;100.00;102048.97;5112597;28;20020;-72
2023/12/07 08:22:32;;;;;;;94.80;18.60;;;;;;;-1.05;100.00;102041.00;5113250;28;20027;-73
2023/12/07 08:24:58;;;;;;;105.43;18.70;;;;;;;-1.03;100.00;102044.44;5117083;28;20126;-73
2023/12/07 08:27:24;;;;;;;106.38;19.48;;;;;;;-1.00;100.00;102046.97;5116628;28;20526;-73
2023/12/07 08:29:50;;;;;;;142.27;18.88;;;;;;;-0.98;100.00;102042.59;5098351;28;20519;-74
2023/12/07 08:32:18;;;;;;;83.97;18.00;;;;;;;-0.96;100.00;102039.03;5098713;28;20114;-74
2023/12/07 08:34:44;;;;;;;65.70;17.00;;;;;;;-0.95;100.00;102039.91;5098570;28;20032;-74
2023/12/07 08:37:09;;;;;;;73.85;16.67;;;;;;;-0.95;100.00;102026.84;5116740;28;20039;-75
2023/12/07 08:39:34;;;;;;;95.28;17.83;;;;;;;-0.91;100.00;102031.97;5116119;28;20024;-73
2023/12/07 08:42:00;;;;;;;79.55;15.60;;;;;;;-0.91;100.00;102021.50;5098292;28;20028;-73
2023/12/07 08:44:26;;;;;;;82.00;17.20;;;;;;;-0.88;100.00;102023.19;5098079;28;20031;-74
2023/12/07 08:46:51;;;;;;;67.85;18.13;;;;;;;-0.81;100.00;102023.91;5116359;28;20027;-74
2023/12/07 08:49:17;;;;;;;86.53;17.80;;;;;;;-0.78;100.00;102018.59;5116278;28;20086;-74
2023/12/07 08:51:42;;;;;;;84.38;16.67;;;;;;;-0.75;100.00;102010.69;5116367;28;20091;-72
2023/12/07 08:54:07;;;;;;;99.03;19.45;;;;;;;-0.73;100.00;102017.59;5116310;28;20029;-73
2023/12/07 08:56:33;;;;;;;107.13;19.02;;;;;;;-0.73;100.00;102028.03;5116054;28;20093;-74
2023/12/07 08:58:58;;;;;;;87.10;19.30;;;;;;;-0.69;100.00;102026.22;5116332;28;20024;-73
2023/12/07 09:01:23;;;;;;;96.80;18.63;;;;;;;-0.63;100.00;102020.81;5116489;28;20107;-73
2023/12/07 09:03:49;;;;;;;101.85;19.90;;;;;;;-0.60;100.00;102020.78;5116140;28;20115;-74
2023/12/07 09:06:14;;;;;;;119.55;20.17;;;;;;;-0.60;100.00;102026.00;5116147;28;20054;-73
2023/12/07 09:08:39;;;;;;;97.60;19.00;;;;;;;-0.61;100.00;102029.50;5097316;28;20059;-74
2023/12/07 09:11:05;;;;;;;86.03;19.80;;;;;;;-0.57;100.00;102025.03;5116453;28;20078;-73
2023/12/07 09:13:30;;;;;;;89.43;20.17;;;;;;;-0.55;100.00;102028.50;5115700;28;20024;-73
2023/12/07 09:15:56;;;;;;;138.57;22.08;;;;;;;-0.56;100.00;102027.63;5115620;28;20024;-74
2023/12/07 09:18:21;;;;;;;122.65;20.17;;;;;;;-0.52;100.00;102023.19;5115796;28;20483;-74
2023/12/07 09:20:46;;;;;;;96.05;19.85;;;;;;;-0.49;100.00;102025.72;5115930;28;20407;-75
2023/12/07 09:23:12;;;;;;;133.10;20.23;;;;;;;-0.48;100.00;102016.13;5115823;28;20106;-74
2023/12/07 09:25:39;;;;;;;118.75;21.30;;;;;;;-0.46;100.00;102009.06;5115626;28;20030;-73
2023/12/07 09:28:04;;;;;;;130.23;19.75;;;;;;;-0.42;100.00;102011.59;5097222;28;20031;-75
2023/12/07 09:30:30;;;;;;;119.72;20.92;;;;;;;-0.38;100.00;102004.53;5097893;28;20040;-74
2023/12/07 09:32:55;;;;;;;168.57;25.02;;;;;;;-0.37;100.00;101996.63;5115016;28;20019;-74
2023/12/07 09:35:21;;;;;;;145.93;23.27;;;;;;;-0.33;100.00;101989.56;5115165;28;20443;-74
2023/12/07 09:37:47;;;;;;;131.90;23.00;;;;;;;-0.29;100.00;101982.50;5115728;28;20063;-74
2023/12/07 09:40:19;;;;;;;125.93;23.20;;;;;;;-0.24;100.00;101975.38;5115017;28;20027;-76
2023/12/07 09:42:46;;;;;;;144.10;24.08;;;;;;;-0.18;100.00;101977.81;5115171;28;20451;-74
2023/12/07 09:45:14;;;;;;;138.73;24.88;;;;;;;-0.16;100.00;101976.03;5115483;28;20023;-74
2023/12/07 09:47:40;;;;;;;155.57;27.00;;;;;;;-0.16;100.00;101975.16;5097611;28;20031;-75
2023/12/07 09:50:10;;;;;;;148.20;25.63;;;;;;;-0.10;100.00;101978.47;5115713;28;20116;-73
2023/12/07 09:52:36;;;;;;;150.90;25.70;;;;;;;-0.06;100.00;101976.63;5115404;28;20030;-74
2023/12/07 09:55:05;;;;;;;150.85;26.88;;;;;;;-0.03;100.00;101968.69;5115262;28;20024;-75
2023/12/07 09:57:32;;;;;;;140.52;25.80;;;;;;;-0.01;100.00;101966.91;5115233;28;20023;-74
2023/12/07 09:59:58;;;;;;;161.55;27.35;;;;;;;-0.01;100.00;101974.75;5115172;28;20031;-74
2023/12/07 10:02:24;;;;;;;139.18;27.25;;;;;;;-0.01;100.00;101972.97;5097823;28;20031;-74
2023/12/07 10:05:04;;;;;;;153.55;27.48;;;;;;;0.06;100.00;101973.69;5096683;28;20039;-74
2023/12/07 10:07:37;;;;;;;142.23;26.75;;;;;;;0.10;100.00;101963.97;5097279;28;20031;-75
2023/12/07 10:10:03;;;;;;;143.15;27.08;;;;;;;0.19;100.00;101965.47;5115128;28;20035;-73
2023/12/07 10:12:34;;;;;;;162.55;28.17;;;;;;;0.26;100.00;101964.41;5096946;28;20471;-74
2023/12/07 10:15:02;;;;;;;150.68;27.10;;;;;;;0.28;100.00;101962.59;5115094;28;20111;-74
2023/12/07 10:17:50;;;;;;;153.98;26.52;;;;;;;0.27;100.00;101960.84;5115405;28;20392;-73
2023/12/07 10:20:23;;;;;;;143.82;26.58;;;;;;;0.30;100.00;101960.75;5097933;28;20067;-73
2023/12/07 10:22:49;;;;;;;138.13;27.90;;;;;;;0.32;100.00;101954.59;5115108;28;20024;-75
2023/12/07 10:25:15;;;;;;;122.72;26.40;;;;;;;0.33;100.00;101955.47;5096428;28;20015;-74
2023/12/07 10:27:42;;;;;;;134.02;27.17;;;;;;;0.34;100.00;101952.81;5114675;28;20027;-74
2023/12/07 10:30:12;;;;;;;118.07;25.75;;;;;;;0.40;100.00;101945.66;5114699;28;20123;-74
2023/12/07 10:32:39;;;;;;;104.65;25.20;;;;;;;0.44;100.00;101942.88;5114596;28;20128;-73
2023/12/07 10:35:07;;;;;;;137.30;27.83;;;;;;;0.46;100.00;101942.84;5114438;28;20024;-74
2023/12/07 10:37:32;;;;;;;113.43;26.77;;;;;;;0.46;100.00;101932.38;5114710;28;20027;-74
2023/12/07 10:39:58;;;;;;;90.93;24.52;;;;;;;0.49;100.00;101929.66;5114112;28;20035;-74
2023/12/07 10:42:24;;;;;;;107.97;25.77;;;;;;;0.52;100.00;101919.97;5096170;28;20027;-74
2023/12/07 10:44:57;;;;;;;110.78;26.85;;;;;;;0.63;100.00;101918.75;5115746;28;20122;-73
2023/12/07 10:47:23;;;;;;;105.45;27.00;;;;;;;0.73;100.00;101911.44;5114735;28;20023;-73
2023/12/07 10:49:52;;;;;;;98.82;25.08;;;;;;;0.83;100.00;101905.00;5114206;28;20054;-73
2023/12/07 10:52:23;;;;;;;92.80;24.67;;;;;;;0.84;100.00;101902.34;5096351;28;20023;-73
2023/12/07 10:55:08;;;;;;;98.20;27.58;;;;;;;0.92;100.00;101909.09;5114533;28;20020;-74
2023/12/07 10:57:35;;;;;;;117.90;27.80;;;;;;;0.98;100.00;101911.50;5096691;28;20068;-73